Wetterdaten: aktuell Dienstag, 01.09.2026 11:20
Datum Zeit Temp. A. Feuchte A. Luftdruck Regen Wind Taupunkt Windchill Windböen
01.09.2026 11:20 20,4 °C 59 % 1021,2 hPa 0,0 l/m² 11,5 km/h (2 Bft) 12,1 °C 18,6 °C 25,7 km/h (4 Bft)
01.09.2026 11:10 20,3 °C 60 % 1021,3 hPa 0,0 l/m² 8,7 km/h (2 Bft) 12,3 °C 19,4 °C 20,9 km/h (4 Bft)
01.09.2026 11:00 20,1 °C 62 % 1021,2 hPa 0,0 l/m² 8,2 km/h (2 Bft) 12,6 °C 19,4 °C 22,5 km/h (4 Bft)
01.09.2026 10:50 19,6 °C 63 % 1021,3 hPa 0,0 l/m² 10,5 km/h (2 Bft) 12,4 °C 18,0 °C 20,9 km/h (4 Bft)
01.09.2026 10:40 19,4 °C 63 % 1021,3 hPa 0,0 l/m² 8,1 km/h (2 Bft) 12,2 °C 18,7 °C 22,5 km/h (4 Bft)
01.09.2026 10:30 19,2 °C 64 % 1021,3 hPa 0,0 l/m² 7,2 km/h (2 Bft) 12,2 °C 18,9 °C 25,7 km/h (4 Bft)
01.09.2026 10:20 18,9 °C 64 % 1021,3 hPa 0,0 l/m² 7,2 km/h (2 Bft) 11,9 °C 18,5 °C 19,3 km/h (3 Bft)
01.09.2026 10:10 18,7 °C 66 % 1021,2 hPa 0,0 l/m² 8,1 km/h (2 Bft) 12,2 °C 17,9 °C 17,7 km/h (3 Bft)
01.09.2026 10:00 18,3 °C 67 % 1021,2 hPa 0,0 l/m² 7,3 km/h (2 Bft) 12,1 °C 17,9 °C 16,1 km/h (3 Bft)
01.09.2026 09:50 18,1 °C 66 % 1021,2 hPa 0,0 l/m² 8,5 km/h (2 Bft) 11,6 °C 17,1 °C 16,1 km/h (3 Bft)
01.09.2026 09:40 17,8 °C 68 % 1021,2 hPa 0,0 l/m² 5,6 km/h (1 Bft) 11,8 °C 17,8 °C 14,5 km/h (3 Bft)
01.09.2026 09:30 17,4 °C 70 % 1021,0 hPa 0,0 l/m² 2,2 km/h (1 Bft) 11,9 °C 17,4 °C 9,7 km/h (2 Bft)
01.09.2026 09:20 17,0 °C 72 % 1020,9 hPa 0,0 l/m² 3,2 km/h (1 Bft) 11,9 °C 17,0 °C 12,9 km/h (3 Bft)
01.09.2026 09:10 16,4 °C 74 % 1020,9 hPa 0,0 l/m² 3,7 km/h (1 Bft) 11,8 °C 16,4 °C 9,7 km/h (2 Bft)
01.09.2026 09:00 15,8 °C 74 % 1021,0 hPa 0,0 l/m² 1,9 km/h (1 Bft) 11,2 °C 15,8 °C 9,7 km/h (2 Bft)
01.09.2026 08:50 15,4 °C 77 % 1021,0 hPa 0,0 l/m² 1,9 km/h (1 Bft) 11,4 °C 15,4 °C 6,4 km/h (2 Bft)
01.09.2026 08:40 15,0 °C 79 % 1021,0 hPa 0,0 l/m² 2,6 km/h (1 Bft) 11,4 °C 15,0 °C 6,4 km/h (2 Bft)
01.09.2026 08:30 14,6 °C 86 % 1021,0 hPa 0,0 l/m² 2,2 km/h (1 Bft) 12,3 °C 14,6 °C 8,0 km/h (2 Bft)
01.09.2026 08:20 14,1 °C 90 % 1021,0 hPa 0,0 l/m² 2,1 km/h (1 Bft) 12,5 °C 14,1 °C 8,0 km/h (2 Bft)
01.09.2026 08:10 13,7 °C 90 % 1020,9 hPa 0,0 l/m² 0,5 km/h (0 Bft) 12,1 °C 13,7 °C 3,2 km/h (1 Bft)
01.09.2026 08:00 13,3 °C 89 % 1020,9 hPa 0,0 l/m² 0,1 km/h (0 Bft) 11,5 °C 13,3 °C 1,6 km/h (1 Bft)
_ Min-Zeit 06:40 11:20 00:00 - 03:50 05:10 06:40 06:20
Minimum _ 12,7 °C 59 % 1019,0 hPa - 0,0 km/h (0 Bft) 9,4 °C 12,7 °C 0,0 km/h (0 Bft)
_ Max-Zeit 11:20 07:40 10:20 00:00 11:20 11:00 11:10 10:30
Maximum _ 20,4 °C 90 % 1021,3 hPa 0,0 l/m² 11,5 km/h
NW (2 Bft)
12,6 °C 19,4 °C 25,7 km/h
S-SW (4 Bft)
Durchschnitt _ 15,2 °C 75 % 1020,2 hPa #0,0 l/m² 3,1 km/h (1 Bft) 10,7 °C 15,1 °C 9,0 km/h (2 Bft)